EGAE/LDY METAR and TAF weather

Enter ICAO airport designator
Station Type Date Time Source
EGAE METAR 2018/01/19 17:20 UTC NOAA

EGAE 191720Z 22009KT 9999 VCSH FEW013 SCT025 03/01 Q1002


Station Type Date Time Source
EGAE Decoded METAR 2018/01/19 17:20 UTC NOAA

Eglinton / Londonderr, United Kingdom (EGAE) 55-03N 007-09W
Jan 19, 2018 - 12:20 PM EST / 2018.01.19 1720 UTC
Wind: from the SW (220 degrees) at 10 MPH (9 KT):0
Visibility: greater than 7 mile(s):0
Sky conditions: partly cloudy
Weather: showers in the vicinity
Temperature: 37 F (3 C)
Dew Point: 33 F (1 C)
Relative Humidity: 86%
Pressure (altimeter): 29.59 in. Hg (1002 hPa)
ob: EGAE 191720Z 22009KT 9999 VCSH FEW013 SCT025 03/01 Q1002
cycle: 17

Station Type Date Time Source
EGAE TAF UTC NOAA

Error!


Example: see airport list